createdAt,value
2018-09-29T00:00:05.516Z,33.22
2018-09-29T00:01:05.487Z,34.07
2018-09-29T00:02:05.426Z,34.74
2018-09-29T00:03:05.468Z,35.76
2018-09-29T00:04:05.335Z,36.52
2018-09-29T00:05:05.309Z,37.37
2018-09-29T00:06:05.260Z,36.90
2018-09-29T00:07:05.240Z,38.79
2018-09-29T00:08:05.165Z,39.26
2018-09-29T00:09:05.128Z,39.54
2018-09-29T00:10:05.116Z,39.17
2018-09-29T00:11:05.034Z,38.03
2018-09-29T00:12:04.990Z,37.18
2018-09-29T00:13:04.939Z,36.90
2018-09-29T00:14:04.949Z,36.52
2018-09-29T00:15:04.872Z,36.42
2018-09-29T00:16:04.822Z,35.76
2018-09-29T00:17:04.772Z,37.18
2018-09-29T00:18:04.750Z,37.46
2018-09-29T00:19:04.677Z,36.71
2018-09-29T00:20:04.655Z,36.33
2018-09-29T00:21:04.588Z,35.19
2018-09-29T00:22:04.583Z,34.72
2018-09-29T00:23:04.512Z,35.38
2018-09-29T00:24:04.459Z,35.85
2018-09-29T00:25:04.448Z,35.66
2018-09-29T00:26:04.372Z,36.42
2018-09-29T00:27:04.330Z,37.08
2018-09-29T00:28:04.295Z,38.22
2018-09-29T00:29:04.277Z,36.14
2018-09-29T00:30:04.216Z,36.23
2018-09-29T00:31:04.143Z,36.52
2018-09-29T00:32:04.098Z,36.04
2018-09-29T00:33:04.082Z,36.14
2018-09-29T00:34:04.022Z,37.55
2018-09-29T00:35:03.997Z,37.93
2018-09-29T00:36:03.937Z,36.99
2018-09-29T00:37:03.918Z,36.61
2018-09-29T00:38:03.850Z,36.80
2018-09-29T00:39:03.805Z,35.76
2018-09-29T00:40:03.775Z,34.44
2018-09-29T00:41:03.709Z,33.30
2018-09-29T00:42:03.679Z,33.30
2018-09-29T00:43:03.619Z,33.30
2018-09-29T00:44:03.622Z,32.92
2018-09-29T00:45:03.541Z,33.01
2018-09-29T00:46:03.513Z,34.25
2018-09-29T00:47:03.438Z,35.38
2018-09-29T00:48:03.404Z,36.14
2018-09-29T00:49:03.360Z,36.33
2018-09-29T00:50:03.329Z,36.61
2018-09-29T00:51:03.300Z,37.65
2018-09-29T00:52:03.228Z,38.22
2018-09-29T00:53:03.182Z,38.57
2018-09-29T00:54:03.187Z,38.48
2018-09-29T00:55:03.101Z,37.82
2018-09-29T00:56:03.025Z,36.80
2018-09-29T00:57:03.027Z,35.85
2018-09-29T00:58:02.955Z,35.19
2018-09-29T00:59:02.905Z,34.25
2018-09-29T01:00:02.869Z,34.53
2018-09-29T01:01:02.868Z,35.28
2018-09-29T01:02:02.773Z,35.28
2018-09-29T01:03:02.729Z,35.57
2018-09-29T01:04:02.703Z,34.72
2018-09-29T01:05:02.654Z,35.00
2018-09-29T01:06:02.608Z,35.47
2018-09-29T01:07:02.575Z,37.18
2018-09-29T01:08:02.508Z,37.93
2018-09-29T01:09:02.518Z,36.90
2018-09-29T01:10:02.455Z,35.19
2018-09-29T01:11:02.358Z,33.49
2018-09-29T01:12:02.343Z,33.01
2018-09-29T01:13:02.325Z,33.01
2018-09-29T01:14:02.252Z,33.11
2018-09-29T01:15:02.196Z,33.20
2018-09-29T01:16:02.172Z,32.73
2018-09-29T01:17:02.119Z,32.45
2018-09-29T01:18:02.079Z,33.30
2018-09-29T01:19:02.118Z,34.44
2018-09-29T01:20:02.002Z,34.34
2018-09-29T01:21:01.958Z,34.72
2018-09-29T01:22:01.909Z,32.92
2018-09-29T01:23:01.834Z,32.17
2018-09-29T01:24:01.803Z,32.54
2018-09-29T01:25:01.744Z,32.92
2018-09-29T01:26:01.696Z,33.20
2018-09-29T01:27:01.662Z,33.87
2018-09-29T01:28:01.627Z,34.53
2018-09-29T01:29:01.597Z,35.00
2018-09-29T01:30:01.531Z,36.04
2018-09-29T01:31:01.493Z,35.66
2018-09-29T01:32:01.482Z,36.40
2018-09-29T01:33:01.383Z,36.21
2018-09-29T01:34:01.357Z,35.76
2018-09-29T01:35:01.307Z,35.85
2018-09-29T01:36:01.268Z,35.85
2018-09-29T01:37:01.243Z,35.95
2018-09-29T01:38:01.175Z,36.49
2018-09-29T01:39:01.140Z,38.39
2018-09-29T01:40:01.076Z,39.62
2018-09-29T01:41:01.028Z,38.57
2018-09-29T01:42:01.017Z,38.76
2018-09-29T01:43:00.972Z,39.24
2018-09-29T01:44:01.964Z,38.01
2018-09-29T01:45:00.897Z,37.82
2018-09-29T01:46:00.831Z,38.10
2018-09-29T01:47:00.780Z,38.01
2018-09-29T01:48:00.769Z,38.29
2018-09-29T01:49:00.690Z,38.39
2018-09-29T01:50:00.654Z,37.92
2018-09-29T01:51:00.638Z,38.57
2018-09-29T01:52:00.560Z,37.44
2018-09-29T01:53:00.501Z,36.31
2018-09-29T01:54:00.444Z,35.17
2018-09-29T01:55:00.405Z,35.46
2018-09-29T01:56:00.388Z,35.17
2018-09-29T01:57:00.340Z,36.12
2018-09-29T01:58:00.289Z,36.31
2018-09-29T01:59:00.228Z,36.49
2018-09-29T02:00:00.245Z,35.08
2018-09-29T02:01:00.176Z,35.17
2018-09-29T02:02:00.106Z,34.89
2018-09-29T02:03:00.045Z,34.23
2018-09-29T02:04:00.028Z,34.51
2018-09-29T02:04:59.954Z,35.46
2018-09-29T02:05:59.913Z,36.31
2018-09-29T02:06:59.911Z,34.99
2018-09-29T02:07:59.863Z,34.61
2018-09-29T02:08:59.790Z,34.99
2018-09-29T02:09:59.760Z,35.08
2018-09-29T02:10:59.693Z,35.17
2018-09-29T02:11:59.646Z,34.80
2018-09-29T02:12:59.599Z,34.42
2018-09-29T02:14:00.297Z,34.23
2018-09-29T02:14:59.525Z,34.32
2018-09-29T02:15:59.457Z,34.72
2018-09-29T02:16:59.417Z,35.17
2018-09-29T02:17:59.370Z,35.74
2018-09-29T02:18:59.327Z,36.68
2018-09-29T02:19:59.293Z,36.59
2018-09-29T02:20:59.235Z,35.74
2018-09-29T02:21:59.221Z,35.36
2018-09-29T02:22:59.143Z,35.74
2018-09-29T02:23:59.119Z,36.02
2018-09-29T02:24:59.092Z,35.08
2018-09-29T02:25:59.047Z,35.27
2018-09-29T02:26:58.994Z,34.32
2018-09-29T02:27:58.933Z,34.04
2018-09-29T02:28:58.983Z,34.80
2018-09-29T02:29:58.892Z,35.17
2018-09-29T02:30:58.834Z,34.99
2018-09-29T02:31:58.760Z,35.08
2018-09-29T02:32:58.728Z,35.93
2018-09-29T02:33:58.669Z,37.06
2018-09-29T02:34:58.628Z,37.25
2018-09-29T02:35:58.585Z,36.97
2018-09-29T02:36:58.552Z,36.68
2018-09-29T02:37:58.476Z,34.51
2018-09-29T02:38:58.467Z,33.58
2018-09-29T02:39:58.392Z,33.11
2018-09-29T02:40:58.387Z,33.11
2018-09-29T02:41:58.306Z,33.01
2018-09-29T02:42:58.260Z,33.11
2018-09-29T02:43:58.216Z,33.01
2018-09-29T02:44:58.171Z,33.87
2018-09-29T02:45:58.152Z,34.72
2018-09-29T02:46:58.079Z,34.81
2018-09-29T02:47:58.032Z,35.28
2018-09-29T02:48:58.008Z,36.12
2018-09-29T02:49:57.959Z,35.83
2018-09-29T02:50:57.909Z,37.06
2018-09-29T02:51:57.847Z,37.54
2018-09-29T02:52:57.798Z,37.63
2018-09-29T02:53:57.771Z,38.29
2018-09-29T02:54:57.704Z,38.57
2018-09-29T02:55:57.816Z,38.48
2018-09-29T02:56:57.644Z,38.29
2018-09-29T02:57:57.609Z,37.63
2018-09-29T02:58:57.547Z,38.01
2018-09-29T02:59:57.539Z,38.29
2018-09-29T03:00:57.447Z,38.57
2018-09-29T03:01:57.432Z,38.57
2018-09-29T03:02:57.361Z,38.76
2018-09-29T03:03:57.333Z,38.67
2018-09-29T03:04:57.262Z,38.29
2018-09-29T03:05:57.250Z,39.33
2018-09-29T03:06:57.180Z,40.37
2018-09-29T03:07:57.150Z,40.09
2018-09-29T03:08:57.083Z,40.28
2018-09-29T03:09:57.059Z,39.52
2018-09-29T03:10:56.996Z,39.62
2018-09-29T03:11:56.980Z,39.05
2018-09-29T03:12:56.900Z,38.20
2018-09-29T03:13:56.875Z,37.82
2018-09-29T03:14:56.810Z,36.97
2018-09-29T03:15:56.774Z,36.78
2018-09-29T03:16:56.727Z,36.12
2018-09-29T03:17:56.700Z,35.93
2018-09-29T03:18:56.650Z,35.83
2018-09-29T03:19:56.606Z,37.16
2018-09-29T03:20:56.541Z,39.05
2018-09-29T03:21:56.503Z,39.52
2018-09-29T03:22:56.520Z,38.48
2018-09-29T03:23:56.416Z,37.82
2018-09-29T03:24:56.372Z,37.73
2018-09-29T03:25:56.340Z,37.44
2018-09-29T03:26:56.277Z,37.25
2018-09-29T03:27:56.261Z,37.54
2018-09-29T03:28:56.183Z,38.29
2018-09-29T03:29:56.155Z,39.62
2018-09-29T03:30:56.129Z,40.19
2018-09-29T03:31:56.179Z,41.32
2018-09-29T03:32:56.024Z,40.75
2018-09-29T03:33:55.962Z,39.43
2018-09-29T03:34:55.920Z,38.39
2018-09-29T03:35:55.884Z,38.57
2018-09-29T03:36:55.841Z,38.57
2018-09-29T03:37:55.800Z,38.29
2018-09-29T03:38:55.787Z,36.97
2018-09-29T03:39:55.690Z,36.21
2018-09-29T03:40:55.669Z,37.06
2018-09-29T03:41:55.627Z,38.29
2018-09-29T03:42:55.587Z,38.67
2018-09-29T03:43:55.528Z,39.14
2018-09-29T03:44:55.467Z,38.57
2018-09-29T03:45:55.440Z,38.67
2018-09-29T03:46:55.427Z,39.52
2018-09-29T03:47:55.327Z,41.89
2018-09-29T03:48:55.328Z,42.17
2018-09-29T03:49:55.248Z,41.22
2018-09-29T03:50:55.273Z,40.66
2018-09-29T03:51:55.148Z,40.37
2018-09-29T03:52:55.132Z,39.52
2018-09-29T03:53:55.078Z,38.76
2018-09-29T03:54:55.045Z,37.92
2018-09-29T03:55:54.989Z,36.49
2018-09-29T03:56:54.953Z,37.25
2018-09-29T03:57:54.886Z,38.95
2018-09-29T03:58:54.842Z,39.62
2018-09-29T03:59:54.802Z,38.10
2018-09-29T04:00:54.746Z,39.43
2018-09-29T04:01:54.699Z,40.56
2018-09-29T04:02:54.661Z,40.37
2018-09-29T04:03:54.601Z,38.39
2018-09-29T04:04:54.584Z,38.29
2018-09-29T04:05:54.529Z,39.05
2018-09-29T04:06:54.488Z,39.52
2018-09-29T04:07:54.443Z,39.62
2018-09-29T04:08:54.397Z,41.89
2018-09-29T04:09:54.337Z,42.36
2018-09-29T04:10:54.303Z,41.98
2018-09-29T04:11:54.270Z,41.60
2018-09-29T04:12:54.215Z,41.22
2018-09-29T04:13:54.241Z,41.98
2018-09-29T04:14:54.184Z,42.93
2018-09-29T04:15:54.073Z,44.25
2018-09-29T04:16:54.032Z,43.30
2018-09-29T04:17:53.976Z,41.03
2018-09-29T04:18:53.971Z,42.55
2018-09-29T04:19:53.925Z,43.85
2018-09-29T04:20:53.844Z,43.38
2018-09-29T04:21:53.801Z,43.49
2018-09-29T04:22:53.759Z,43.57
2018-09-29T04:23:53.724Z,42.17
2018-09-29T04:24:53.693Z,40.84
2018-09-29T04:25:53.641Z,41.60
2018-09-29T04:26:53.605Z,42.17
2018-09-29T04:27:53.516Z,43.21
2018-09-29T04:28:53.470Z,43.09
2018-09-29T04:29:53.454Z,43.00
2018-09-29T04:30:53.377Z,42.90
2018-09-29T04:31:53.365Z,42.52
2018-09-29T04:32:53.327Z,43.19
2018-09-29T04:33:53.277Z,44.89
2018-09-29T04:34:53.214Z,45.17
2018-09-29T04:35:53.151Z,44.32
2018-09-29T04:36:53.122Z,43.00
2018-09-29T04:37:53.102Z,44.23
2018-09-29T04:38:53.022Z,45.17
2018-09-29T04:39:53.018Z,46.12
2018-09-29T04:40:52.930Z,46.50
2018-09-29T04:41:52.898Z,46.40
2018-09-29T04:42:52.849Z,44.98
2018-09-29T04:43:52.805Z,44.42
2018-09-29T04:44:52.776Z,43.00
2018-09-29T04:45:52.821Z,42.43
2018-09-29T04:46:52.736Z,42.52
2018-09-29T04:47:52.624Z,43.09
2018-09-29T04:48:52.593Z,43.85
2018-09-29T04:49:52.540Z,44.79
2018-09-29T04:50:52.492Z,45.74
2018-09-29T04:51:52.531Z,46.12
2018-09-29T04:52:52.377Z,44.70
2018-09-29T04:53:52.338Z,43.57
2018-09-29T04:54:52.306Z,42.90
2018-09-29T04:55:52.252Z,42.52
2018-09-29T04:56:52.207Z,43.38
2018-09-29T04:57:52.179Z,44.13
2018-09-29T04:58:52.105Z,44.70
2018-09-29T04:59:52.094Z,43.47
2018-09-29T05:00:52.053Z,43.57
2018-09-29T05:01:51.969Z,46.21
2018-09-29T05:02:51.945Z,45.74
2018-09-29T05:03:51.877Z,45.17
2018-09-29T05:04:51.858Z,45.27
2018-09-29T05:05:51.796Z,45.64
2018-09-29T05:06:51.752Z,46.31
2018-09-29T05:07:51.696Z,46.40
2018-09-29T05:08:51.671Z,46.31
2018-09-29T05:09:51.619Z,45.93
2018-09-29T05:10:51.583Z,47.53
2018-09-29T05:11:51.516Z,48.57
2018-09-29T05:12:51.476Z,48.95
2018-09-29T05:13:51.468Z,45.08
2018-09-29T05:14:51.376Z,42.24
2018-09-29T05:15:51.362Z,40.28
2018-09-29T05:16:51.287Z,39.24
2018-09-29T05:17:51.282Z,38.95
2018-09-29T05:18:51.198Z,39.14
2018-09-29T05:19:51.198Z,39.52
2018-09-29T05:20:51.117Z,40.00
2018-09-29T05:21:51.064Z,41.22
2018-09-29T05:22:51.027Z,42.17
2018-09-29T05:23:50.983Z,43.49
2018-09-29T05:24:50.936Z,44.91
2018-09-29T05:25:50.891Z,46.33
2018-09-29T05:26:50.847Z,50.27
2018-09-29T05:27:50.800Z,51.98
2018-09-29T05:28:50.771Z,51.03
2018-09-29T05:29:50.718Z,50.75
2018-09-29T05:30:50.690Z,48.60
2018-09-29T05:31:50.680Z,45.10
2018-09-29T05:32:50.591Z,43.40
2018-09-29T05:33:50.514Z,42.74
2018-09-29T05:34:50.490Z,43.49
2018-09-29T05:35:50.448Z,46.23
2018-09-29T05:36:50.405Z,47.37
2018-09-29T05:37:54.005Z,49.35
2018-09-29T05:38:50.387Z,52.67
2018-09-29T05:40:44.869Z,56.54
2018-09-29T05:41:44.794Z,55.98
2018-09-29T05:42:44.650Z,55.69
2018-09-29T05:43:44.593Z,55.60
2018-09-29T05:44:45.303Z,53.61
2018-09-29T05:45:44.525Z,52.76
2018-09-29T05:46:44.481Z,52.38
2018-09-29T05:47:44.575Z,52.38
2018-09-29T05:48:44.383Z,51.25
2018-09-29T05:49:44.331Z,49.73
2018-09-29T05:50:44.336Z,48.13
2018-09-29T05:51:44.233Z,47.47
2018-09-29T05:52:44.204Z,48.88
2018-09-29T05:53:44.211Z,50.49
2018-09-29T05:54:44.106Z,50.78
2018-09-29T05:55:44.053Z,50.30
2018-09-29T05:56:44.006Z,50.02
2018-09-29T05:57:43.970Z,50.30
2018-09-29T05:58:43.920Z,48.88
2018-09-29T05:59:43.901Z,46.90
2018-09-29T06:00:43.906Z,45.41
2018-09-29T06:01:43.784Z,45.03
2018-09-29T06:02:43.738Z,44.74
2018-09-29T06:03:43.707Z,44.18
2018-09-29T06:04:43.649Z,44.65
2018-09-29T06:05:43.672Z,45.98
2018-09-29T06:06:43.593Z,48.06
2018-09-29T06:07:43.524Z,50.61
2018-09-29T06:08:43.473Z,52.12
2018-09-29T06:09:43.423Z,53.07
2018-09-29T06:10:43.405Z,53.07
2018-09-29T06:11:43.350Z,52.60
2018-09-29T06:12:43.335Z,52.79
2018-09-29T06:13:43.249Z,52.50
2018-09-29T06:14:43.232Z,51.28
2018-09-29T06:15:43.169Z,50.92
2018-09-29T06:16:43.100Z,51.77
2018-09-29T06:17:43.081Z,53.19
2018-09-29T06:18:43.030Z,54.90
2018-09-29T06:19:43.010Z,56.03
2018-09-29T06:20:42.956Z,56.98
2018-09-29T06:21:42.953Z,58.40
2018-09-29T06:22:42.880Z,59.81
2018-09-29T06:23:42.832Z,59.63
2018-09-29T06:24:42.769Z,60.10
2018-09-29T06:25:42.699Z,59.91
2018-09-29T06:26:42.658Z,61.30
2018-09-29T06:27:42.637Z,59.81
2018-09-29T06:28:42.633Z,59.25
2018-09-29T06:29:42.527Z,59.16
2018-09-29T06:30:42.492Z,58.40
2018-09-29T06:31:42.453Z,58.59
2018-09-29T06:32:42.391Z,57.83
2018-09-29T06:33:42.379Z,57.54
2018-09-29T06:34:42.325Z,56.88
2018-09-29T06:35:42.284Z,56.13
2018-09-29T06:36:42.279Z,55.08
2018-09-29T06:37:42.203Z,55.18
2018-09-29T06:38:42.157Z,53.95
2018-09-29T06:39:42.110Z,53.66
2018-09-29T06:40:42.094Z,53.95
2018-09-29T06:41:42.014Z,53.47
2018-09-29T06:42:41.964Z,53.00
2018-09-29T06:43:41.920Z,53.28
2018-09-29T06:44:41.873Z,52.91
2018-09-29T06:45:41.848Z,50.38
2018-09-29T06:46:41.809Z,50.85
2018-09-29T06:47:41.869Z,51.32
2018-09-29T06:48:41.699Z,52.08
2018-09-29T06:49:41.654Z,53.78
2018-09-29T06:50:41.610Z,53.97
2018-09-29T06:51:41.590Z,54.93
2018-09-29T06:52:41.585Z,54.83
2018-09-29T06:53:41.490Z,55.62
2018-09-29T06:54:41.448Z,58.36
2018-09-29T06:55:41.473Z,61.58
2018-09-29T06:56:41.393Z,64.93
2018-09-29T06:57:41.366Z,67.77
2018-09-29T06:58:41.298Z,72.33
2018-09-29T06:59:41.226Z,73.84
2018-09-29T07:00:41.172Z,73.27
2018-09-29T07:01:41.150Z,71.98
2018-09-29T07:02:41.102Z,69.52
2018-09-29T07:03:41.054Z,70.09
2018-09-29T07:04:41.012Z,75.34
2018-09-29T07:05:40.971Z,77.05
2018-09-29T07:06:40.931Z,81.93
2018-09-29T07:07:40.889Z,89.14
2018-09-29T07:08:40.858Z,96.50
2018-09-29T07:09:40.804Z,99.99
2018-09-29T07:10:40.756Z,99.99
2018-09-29T07:11:41.598Z,99.99
2018-09-29T07:12:40.688Z,99.99
2018-09-29T07:13:40.652Z,99.99
2018-09-29T07:14:40.618Z,99.99
2018-09-29T07:15:40.571Z,99.99
2018-09-29T07:16:40.547Z,99.99
2018-09-29T07:17:40.503Z,99.99
2018-09-29T07:18:40.461Z,99.99
2018-09-29T07:19:40.421Z,99.99
2018-09-29T07:20:40.385Z,99.99
2018-09-29T07:21:40.385Z,99.99
2018-09-29T07:22:40.294Z,99.99
2018-09-29T07:23:40.280Z,99.99
2018-09-29T07:24:40.243Z,99.99
2018-09-29T07:25:40.211Z,99.99
2018-09-29T07:26:40.159Z,99.99
2018-09-29T07:27:40.173Z,99.99
2018-09-29T07:28:40.108Z,99.99
2018-09-29T07:29:40.057Z,99.99
2018-09-29T07:30:40.026Z,99.99
2018-09-29T07:31:39.996Z,99.99
2018-09-29T07:32:39.940Z,99.99
2018-09-29T07:33:39.919Z,99.99
2018-09-29T07:34:39.862Z,99.99
2018-09-29T07:35:39.819Z,99.99
2018-09-29T07:36:39.779Z,99.99
2018-09-29T07:37:39.780Z,99.99
2018-09-29T07:38:39.759Z,99.99
2018-09-29T07:39:39.686Z,99.99
2018-09-29T07:40:39.672Z,99.99
2018-09-29T07:41:39.610Z,99.99
2018-09-29T07:42:39.572Z,99.99
2018-09-29T07:43:39.519Z,99.99
2018-09-29T07:44:39.481Z,99.99
2018-09-29T07:45:39.459Z,99.99
2018-09-29T07:46:39.422Z,99.99
2018-09-29T07:47:39.399Z,99.99
2018-09-29T07:48:39.354Z,99.99
2018-09-29T07:49:39.331Z,99.99
2018-09-29T07:50:39.291Z,99.99
2018-09-29T07:51:39.253Z,99.99
2018-09-29T07:52:39.196Z,99.99
2018-09-29T07:53:39.145Z,99.99
2018-09-29T07:54:39.269Z,99.99
2018-09-29T07:55:39.102Z,99.99
2018-09-29T07:56:39.063Z,99.99
2018-09-29T07:57:39.012Z,99.99
2018-09-29T07:58:38.964Z,99.99
2018-09-29T07:59:39.611Z,99.99
2018-09-29T08:00:38.906Z,99.99
2018-09-29T08:01:38.875Z,99.99
2018-09-29T08:02:38.827Z,99.99
2018-09-29T08:03:38.804Z,99.99
2018-09-29T08:04:38.757Z,99.99
2018-09-29T08:05:38.779Z,99.99
2018-09-29T08:06:38.700Z,99.99
2018-09-29T08:07:38.653Z,99.99
2018-09-29T08:08:38.608Z,99.99
2018-09-29T08:09:38.570Z,99.99
2018-09-29T08:10:38.587Z,99.99
2018-09-29T08:11:38.492Z,99.99
2018-09-29T08:12:38.474Z,99.99
2018-09-29T08:13:38.423Z,99.99
2018-09-29T08:14:38.393Z,99.99
2018-09-29T08:15:38.378Z,99.99
2018-09-29T08:16:38.304Z,99.99
2018-09-29T08:17:38.268Z,99.99
2018-09-29T08:18:38.232Z,99.99
2018-09-29T08:19:38.194Z,99.99
2018-09-29T08:20:38.165Z,99.99
2018-09-29T08:21:38.123Z,99.99
2018-09-29T08:22:38.102Z,99.99
2018-09-29T08:23:38.068Z,99.99
2018-09-29T08:24:38.025Z,99.99
2018-09-29T08:25:37.976Z,99.99
2018-09-29T08:26:37.936Z,99.99
2018-09-29T08:27:37.918Z,99.99
2018-09-29T08:28:37.882Z,99.99
2018-09-29T08:29:37.843Z,99.99
2018-09-29T08:30:37.800Z,99.99
2018-09-29T08:31:37.827Z,99.99
2018-09-29T08:32:37.729Z,99.99
2018-09-29T08:33:37.711Z,99.99
2018-09-29T08:34:37.667Z,99.99
2018-09-29T08:35:37.627Z,99.99
2018-09-29T08:36:37.582Z,99.99
2018-09-29T08:37:37.586Z,99.99
2018-09-29T08:38:37.509Z,99.99
2018-09-29T08:39:37.474Z,99.99
2018-09-29T08:40:37.445Z,99.99
2018-09-29T08:41:37.401Z,99.99
2018-09-29T08:42:37.364Z,99.99
2018-09-29T08:43:37.332Z,99.99
2018-09-29T08:44:37.312Z,99.99
2018-09-29T08:45:37.264Z,99.99
2018-09-29T08:46:37.229Z,99.99
2018-09-29T08:47:37.202Z,99.99
2018-09-29T08:48:37.165Z,99.99
2018-09-29T08:49:37.158Z,99.99
2018-09-29T08:50:37.095Z,99.99
2018-09-29T08:51:37.078Z,98.90
2018-09-29T08:52:37.046Z,99.96
2018-09-29T08:53:37.034Z,99.76
2018-09-29T08:54:36.963Z,94.41
2018-09-29T08:55:36.926Z,95.46
2018-09-29T08:56:36.913Z,99.99
2018-09-29T08:57:36.875Z,99.99
2018-09-29T08:58:36.824Z,97.52
2018-09-29T08:59:36.819Z,99.10
2018-09-29T09:00:36.778Z,95.56
2018-09-29T09:01:36.735Z,95.22
2018-09-29T09:02:36.700Z,90.43
2018-09-29T09:03:36.699Z,86.54
2018-09-29T09:04:36.662Z,85.78
2018-09-29T09:05:36.615Z,85.30
2018-09-29T09:06:36.595Z,84.72
2018-09-29T09:07:36.595Z,84.67
2018-09-29T09:08:36.529Z,83.18
2018-09-29T09:09:36.497Z,81.45
2018-09-29T09:10:36.463Z,79.53
2018-09-29T09:11:36.442Z,79.24
2018-09-29T09:12:36.409Z,77.59
2018-09-29T09:13:36.387Z,73.85
2018-09-29T09:14:36.352Z,73.02
2018-09-29T09:15:36.322Z,72.19
2018-09-29T09:16:36.292Z,69.79
2018-09-29T09:17:36.295Z,68.38
2018-09-29T09:18:36.311Z,68.57
2018-09-29T09:19:36.269Z,67.03
2018-09-29T09:20:36.197Z,67.77
2018-09-29T09:21:36.154Z,68.29
2018-09-29T09:22:36.129Z,67.99
2018-09-29T09:23:36.187Z,66.30
2018-09-29T09:24:36.098Z,65.63
2018-09-29T09:25:36.089Z,64.40
2018-09-29T09:26:36.037Z,64.28
2018-09-29T09:27:36.068Z,63.60
2018-09-29T09:28:35.990Z,64.18
2018-09-29T09:29:35.983Z,65.46
2018-09-29T09:30:35.916Z,64.15
2018-09-29T09:31:35.914Z,62.87
2018-09-29T09:32:35.880Z,63.73
2018-09-29T09:33:35.853Z,63.64
2018-09-29T09:34:35.843Z,63.34
2018-09-29T09:35:35.791Z,62.51
2018-09-29T09:36:35.781Z,62.48
2018-09-29T09:37:35.751Z,59.78
2018-09-29T09:38:35.714Z,57.56
2018-09-29T09:39:35.707Z,59.58
2018-09-29T09:40:35.676Z,60.32
2018-09-29T09:41:35.658Z,60.87
2018-09-29T09:42:35.692Z,61.65
2018-09-29T09:43:35.765Z,64.22
2018-09-29T09:44:35.879Z,67.38
2018-09-29T09:45:35.639Z,70.41
2018-09-29T09:46:35.529Z,76.46
2018-09-29T09:47:35.510Z,80.11
2018-09-29T09:48:35.498Z,87.34
2018-09-29T09:49:35.723Z,93.50
2018-09-29T09:50:35.473Z,95.79
2018-09-29T09:51:35.416Z,97.56
2018-09-29T09:52:35.387Z,99.99
2018-09-29T09:53:35.373Z,99.99
2018-09-29T09:54:35.371Z,99.99
2018-09-29T09:55:35.318Z,99.99
2018-09-29T09:56:35.297Z,99.99
2018-09-29T09:57:35.257Z,99.99
2018-09-29T09:58:35.318Z,91.34
2018-09-29T09:59:35.299Z,83.87
2018-09-29T10:00:35.173Z,83.63
2018-09-29T10:01:35.150Z,78.40
2018-09-29T10:02:35.158Z,79.05
2018-09-29T10:03:35.121Z,76.32
2018-09-29T10:04:35.061Z,75.68
2018-09-29T10:05:35.021Z,78.47
2018-09-29T10:06:35.218Z,85.21
2018-09-29T10:07:34.997Z,81.18
2018-09-29T10:08:34.946Z,78.07
2018-09-29T10:09:34.950Z,79.03
2018-09-29T10:10:34.885Z,82.87
2018-09-29T10:11:34.876Z,84.17
2018-09-29T10:12:34.844Z,85.94
2018-09-29T10:13:34.803Z,85.27
2018-09-29T10:14:34.801Z,81.73
2018-09-29T10:15:34.761Z,81.30
2018-09-29T10:16:34.750Z,82.45
2018-09-29T10:17:34.746Z,79.33
2018-09-29T10:18:34.670Z,77.80
2018-09-29T10:19:34.639Z,80.29
2018-09-29T10:20:34.623Z,82.74
2018-09-29T10:21:34.602Z,83.84
2018-09-29T10:22:34.562Z,84.89
2018-09-29T10:23:34.563Z,86.86
2018-09-29T10:24:34.513Z,85.71
2018-09-29T10:25:34.503Z,84.66
2018-09-29T10:26:34.483Z,86.38
2018-09-29T10:27:34.444Z,87.24
2018-09-29T10:28:34.384Z,85.58
2018-09-29T10:29:34.395Z,84.91
2018-09-29T10:30:34.372Z,86.24
2018-09-29T10:31:34.306Z,87.48
2018-09-29T10:32:34.268Z,86.05
2018-09-29T10:33:34.267Z,85.29
2018-09-29T10:34:34.230Z,82.26
2018-09-29T10:35:34.186Z,78.80
2018-09-29T10:36:34.142Z,72.55
2018-09-29T10:37:34.126Z,69.01
2018-09-29T10:38:34.108Z,69.35
2018-09-29T10:39:34.058Z,66.89
2018-09-29T10:40:34.016Z,67.69
2018-09-29T10:41:34.028Z,67.89
2018-09-29T10:42:33.992Z,65.81
2018-09-29T10:43:33.953Z,62.90
2018-09-29T10:44:33.903Z,57.75
2018-09-29T10:45:33.889Z,56.40
2018-09-29T10:46:33.862Z,56.52
2018-09-29T10:47:33.813Z,56.48
2018-09-29T10:48:33.784Z,55.16
2018-09-29T10:49:33.765Z,52.59
2018-09-29T10:50:33.757Z,54.58
2018-09-29T10:51:33.700Z,55.19
2018-09-29T10:52:33.659Z,54.20
2018-09-29T10:53:33.627Z,54.30
2018-09-29T10:54:33.613Z,55.83
2018-09-29T10:55:33.607Z,54.46
2018-09-29T10:56:33.589Z,55.13
2018-09-29T10:57:33.513Z,56.45
2018-09-29T10:58:33.496Z,56.65
2018-09-29T10:59:33.466Z,56.93
2018-09-29T11:00:33.454Z,54.82
2018-09-29T11:01:33.407Z,55.23
2018-09-29T11:02:33.399Z,55.07
2018-09-29T11:03:33.354Z,56.60
2018-09-29T11:04:33.347Z,53.62
2018-09-29T11:05:33.303Z,53.23
2018-09-29T11:06:33.274Z,53.88
2018-09-29T11:07:33.250Z,52.77
2018-09-29T11:08:33.236Z,54.55
2018-09-29T11:09:33.195Z,56.70
2018-09-29T11:10:33.174Z,60.57
2018-09-29T11:11:33.152Z,63.22
2018-09-29T11:12:33.129Z,64.34
2018-09-29T11:13:33.085Z,65.97
2018-09-29T11:14:33.133Z,66.22
2018-09-29T11:15:33.027Z,67.63
2018-09-29T11:16:33.022Z,68.96
2018-09-29T11:17:32.982Z,69.73
2018-09-29T11:18:32.974Z,69.06
2018-09-29T11:19:32.921Z,70.07
2018-09-29T11:20:32.914Z,71.99
2018-09-29T11:21:32.871Z,73.33
2018-09-29T11:22:32.981Z,74.38
2018-09-29T11:23:32.882Z,73.11
2018-09-29T11:24:32.776Z,72.86
2018-09-29T11:25:32.791Z,70.62
2018-09-29T11:26:32.744Z,72.41
2018-09-29T11:27:32.704Z,71.16
2018-09-29T11:28:32.655Z,73.71
2018-09-29T11:29:32.630Z,75.91
2018-09-29T11:30:32.603Z,78.16
2018-09-29T11:31:32.577Z,80.36
2018-09-29T11:32:32.538Z,80.17
2018-09-29T11:33:32.531Z,79.22
2018-09-29T11:34:32.476Z,80.07
2018-09-29T11:35:32.449Z,79.88
2018-09-29T11:36:32.405Z,78.83
2018-09-29T11:37:32.371Z,74.82
2018-09-29T11:38:32.429Z,74.15
2018-09-29T11:39:32.371Z,75.68
2018-09-29T11:40:32.357Z,85.24
2018-09-29T11:41:32.278Z,88.20
2018-09-29T11:42:32.317Z,91.45
2018-09-29T11:43:32.189Z,94.51
2018-09-29T11:44:32.152Z,97.80
2018-09-29T11:45:32.158Z,99.99
2018-09-29T11:46:32.110Z,99.99
2018-09-29T11:47:32.051Z,99.99
2018-09-29T11:48:32.055Z,98.66
2018-09-29T11:49:32.003Z,99.99
2018-09-29T11:50:31.949Z,88.25
2018-09-29T11:51:31.935Z,83.70
2018-09-29T11:52:31.903Z,88.96
2018-09-29T11:53:31.854Z,99.99
2018-09-29T11:54:31.822Z,92.06
2018-09-29T11:55:31.812Z,76.31
2018-09-29T11:56:31.792Z,71.08
2018-09-29T11:57:31.747Z,69.20
2018-09-29T11:58:31.712Z,66.96
2018-09-29T11:59:31.655Z,68.81
2018-09-29T12:00:31.635Z,68.49
2018-09-29T12:01:31.603Z,67.21
2018-09-29T12:02:31.561Z,69.60
2018-09-29T12:03:31.529Z,71.27
2018-09-29T12:04:31.565Z,70.35
2018-09-29T12:05:31.481Z,71.25
2018-09-29T12:06:31.456Z,68.02
2018-09-29T12:07:31.421Z,65.81
2018-09-29T12:08:31.364Z,66.77
2018-09-29T12:09:31.341Z,65.52
2018-09-29T12:10:31.308Z,63.96
2018-09-29T12:11:31.287Z,62.81
2018-09-29T12:12:31.288Z,66.03
2018-09-29T12:13:31.208Z,67.25
2018-09-29T12:14:31.179Z,65.30
2018-09-29T12:15:31.181Z,66.51
2018-09-29T12:16:31.120Z,69.19
2018-09-29T12:17:31.086Z,68.20
2018-09-29T12:18:31.065Z,67.69
2018-09-29T12:19:31.055Z,65.62
2018-09-29T12:20:31.028Z,65.94
2018-09-29T12:21:30.971Z,65.39
2018-09-29T12:22:30.933Z,65.49
2018-09-29T12:23:30.891Z,61.85
2018-09-29T12:24:30.875Z,62.39
2018-09-29T12:25:30.856Z,62.49
2018-09-29T12:26:30.804Z,64.12
2018-09-29T12:27:30.797Z,64.09
2018-09-29T12:28:30.768Z,64.05
2018-09-29T12:29:30.776Z,64.88
2018-09-29T12:30:30.733Z,65.55
2018-09-29T12:31:30.664Z,67.82
2018-09-29T12:32:30.653Z,69.31
2018-09-29T12:33:30.596Z,70.84
2018-09-29T12:34:30.581Z,70.30
2018-09-29T12:35:30.533Z,69.95
2018-09-29T12:36:30.513Z,69.48
2018-09-29T12:37:30.649Z,69.38
2018-09-29T12:38:30.446Z,66.35
2018-09-29T12:39:30.419Z,65.52
2018-09-29T12:40:30.384Z,64.18
2018-09-29T12:41:30.345Z,65.14
2018-09-29T12:42:30.330Z,62.55
2018-09-29T12:43:30.312Z,61.72
2018-09-29T12:44:30.373Z,63.64
2018-09-29T12:45:30.244Z,63.09
2018-09-29T12:46:30.202Z,65.43
2018-09-29T12:47:30.216Z,65.43
2018-09-29T12:48:30.130Z,63.16
2018-09-29T12:49:30.142Z,60.05
2018-09-29T12:50:30.089Z,60.05
2018-09-29T12:51:30.080Z,61.46
2018-09-29T12:52:30.018Z,62.04